Chicago, Illinois
Traffic Map
Current Weather Conditions
Chicago, Illinois
Overcast
Overcast
77°
Feels Like: 79°
Wind Chill: 77° Ceiling: 23000
Heat Index: 79° Visibility: 10mi
Dew Point: 71° Wind: 9mph
Humidity: 82% Direction: 240° (WSW)
Pressure: 29.92in Gusts: 0mph
Raw Report DataKMDW 290953Z 24008KT 10SM FEW036 SCT100 OVC230 25/22 A2992 RMK AO2 SLP119 T02500217 $
Traffic Incident Summary
Active as of:
Severity:
Category:
InformationThere was an issue retrieving the traffic information for this location. Please try a different location or try again shortly.
Advertisements
Track Severe Weather on mobile